PWSweather.com
Personal Weather Stations
Station Observations
PICKERING
North Yorkshire, PickeringGB

North YorkshirePickeringGB

Lat: 54.2494, Lon: -0.7725

Elevation: 192

Station Type: Oregon Scientific WMR100

http://www.yorkshirewalker.co.uk/weather/

High Low Average
Temperature 44.4°F6.9°C 22.5°F-5.3°C 29.3°F-1.5°C
Dew Point 37.4°F3.0°C 15.8°F-9.0°C 23.1°F-4.9°C
Winds 3.2 mph 5.1 kmh Calm Calm 1.0 mph S1.6 kmh S
Wind Gusts 5.4 mph8.7 kmh -- 2.0 mph3.2 kmh
Humidity 85% 74% 80%
Pressure 29.45 in997.3 mb 29.00 in982.1 mb -
Precipitation 0.00 in0.0 mm - -
Hour Temp Dew Point Humidity Winds Wind Gusts Pressure Precip Precip Rate Daily Precip Total
12:00 AM 31.5°F-0.3°C 24.8°F-4.0°C 83% 0.3 mph W0.5 kmh W 1.1 mph1.8 kmh 29.15 in987.1 mb 0.00 in0.0 mm 0.00 in0.0 mm 0.00 in0.0 mm
12:05 AM 31.3°F-0.4°C 24.8°F-4.0°C 83% 0.3 mph W0.5 kmh W 1.1 mph1.8 kmh 29.15 in987.1 mb 0.00 in0.0 mm 0.00 in0.0 mm 0.00 in0.0 mm
12:10 AM 31.3°F-0.4°C 24.8°F-4.0°C 83% 0.2 mph SSW0.3 kmh SSW 1.1 mph1.8 kmh 29.15 in987.1 mb 0.00 in0.0 mm 0.00 in0.0 mm 0.00 in0.0 mm
12:15 AM 31.1°F-0.5°C 24.8°F-4.0°C 83% 0.2 mph ESE0.3 kmh ESE 0.9 mph1.4 kmh 29.15 in987.1 mb 0.00 in0.0 mm 0.00 in0.0 mm 0.00 in0.0 mm
12:20 AM 31.1°F-0.5°C 24.8°F-4.0°C 83% 0.1 mph SSW0.2 kmh SSW 0.9 mph1.4 kmh 29.15 in987.1 mb 0.00 in0.0 mm 0.00 in0.0 mm 0.00 in0.0 mm
12:25 AM 31.1°F-0.5°C 24.8°F-4.0°C 83% Calm Calm -- 29.15 in987.1 mb 0.00 in0.0 mm 0.00 in0.0 mm 0.00 in0.0 mm
12:30 AM 31.1°F-0.5°C 24.8°F-4.0°C 83% Calm Calm -- 29.15 in987.1 mb 0.00 in0.0 mm 0.00 in0.0 mm 0.00 in0.0 mm
12:35 AM 31.1°F-0.5°C 24.8°F-4.0°C 83% Calm Calm -- 29.15 in987.1 mb 0.00 in0.0 mm 0.00 in0.0 mm 0.00 in0.0 mm
12:40 AM 31.1°F-0.5°C 24.8°F-4.0°C 83% 0.1 mph WSW0.2 kmh WSW 0.9 mph1.4 kmh 29.15 in987.1 mb 0.00 in0.0 mm 0.00 in0.0 mm 0.00 in0.0 mm
12:45 AM 30.9°F-0.6°C 24.8°F-4.0°C 83% 0.1 mph WSW0.2 kmh WSW 0.9 mph1.4 kmh 29.15 in987.1 mb 0.00 in0.0 mm 0.00 in0.0 mm 0.00 in0.0 mm
12:50 AM 30.9°F-0.6°C 24.8°F-4.0°C 83% Calm Calm -- 29.15 in987.1 mb 0.00 in0.0 mm 0.00 in0.0 mm 0.00 in0.0 mm
12:55 AM 30.9°F-0.6°C 24.8°F-4.0°C 83% Calm Calm -- 29.15 in987.1 mb 0.00 in0.0 mm 0.00 in0.0 mm 0.00 in0.0 mm
01:00 AM 30.7°F-0.7°C 24.8°F-4.0°C 83% 0.1 mph WSW0.2 kmh WSW 0.9 mph1.4 kmh 29.15 in987.1 mb 0.00 in0.0 mm 0.00 in0.0 mm 0.00 in0.0 mm
01:05 AM 30.7°F-0.7°C 24.8°F-4.0°C 83% 0.1 mph WSW0.2 kmh WSW 0.9 mph1.4 kmh 29.06 in984.1 mb 0.00 in0.0 mm 0.00 in0.0 mm 0.00 in0.0 mm
01:10 AM 30.6°F-0.8°C 24.8°F-4.0°C 83% Calm Calm -- 29.06 in984.1 mb 0.00 in0.0 mm 0.00 in0.0 mm 0.00 in0.0 mm
01:15 AM 30.6°F-0.8°C 24.8°F-4.0°C 83% Calm Calm -- 29.06 in984.1 mb 0.00 in0.0 mm 0.00 in0.0 mm 0.00 in0.0 mm
01:20 AM 30.4°F-0.9°C 24.8°F-4.0°C 83% Calm Calm -- 29.15 in987.1 mb 0.00 in0.0 mm 0.00 in0.0 mm 0.00 in0.0 mm
01:25 AM 30.2°F-1.0°C 24.8°F-4.0°C 83% Calm Calm -- 29.15 in987.1 mb 0.00 in0.0 mm 0.00 in0.0 mm 0.00 in0.0 mm
01:30 AM 30.0°F-1.1°C 24.8°F-4.0°C 83% 0.1 mph W0.2 kmh W 0.9 mph1.4 kmh 29.15 in987.1 mb 0.00 in0.0 mm 0.00 in0.0 mm 0.00 in0.0 mm
01:35 AM 29.8°F-1.2°C 23.0°F-5.0°C 83% 0.1 mph W0.2 kmh W 0.9 mph1.4 kmh 29.15 in987.1 mb 0.00 in0.0 mm 0.00 in0.0 mm 0.00 in0.0 mm
01:40 AM 29.7°F-1.3°C 23.0°F-5.0°C 83% Calm Calm -- 29.15 in987.1 mb 0.00 in0.0 mm 0.00 in0.0 mm 0.00 in0.0 mm
01:45 AM 29.7°F-1.3°C 23.0°F-5.0°C 83% 0.1 mph WSW0.2 kmh WSW 0.9 mph1.4 kmh 29.15 in987.1 mb 0.00 in0.0 mm 0.00 in0.0 mm 0.00 in0.0 mm
01:50 AM 29.3°F-1.5°C 23.0°F-5.0°C 83% 0.2 mph WSW0.3 kmh WSW 0.9 mph1.4 kmh 29.15 in987.1 mb 0.00 in0.0 mm 0.00 in0.0 mm 0.00 in0.0 mm
01:55 AM 29.1°F-1.6°C 23.0°F-5.0°C 83% 0.4 mph WSW0.6 kmh WSW 1.1 mph1.8 kmh 29.15 in987.1 mb 0.00 in0.0 mm 0.00 in0.0 mm 0.00 in0.0 mm
02:00 AM 28.9°F-1.7°C 23.0°F-5.0°C 83% 0.9 mph WSW1.4 kmh WSW 2.0 mph3.2 kmh 29.15 in987.1 mb 0.00 in0.0 mm 0.00 in0.0 mm 0.00 in0.0 mm
02:05 AM 28.8°F-1.8°C 23.0°F-5.0°C 82% 0.6 mph WSW1.0 kmh WSW 2.0 mph3.2 kmh 29.03 in983.1 mb 0.00 in0.0 mm 0.00 in0.0 mm 0.00 in0.0 mm
02:10 AM 28.8°F-1.8°C 23.0°F-5.0°C 83% 0.1 mph WSW0.2 kmh WSW 0.9 mph1.4 kmh 29.03 in983.1 mb 0.00 in0.0 mm 0.00 in0.0 mm 0.00 in0.0 mm
02:15 AM 28.4°F-2.0°C 23.0°F-5.0°C 83% Calm Calm -- 29.03 in983.1 mb 0.00 in0.0 mm 0.00 in0.0 mm 0.00 in0.0 mm
02:20 AM 28.2°F-2.1°C 23.0°F-5.0°C 83% Calm Calm -- 29.18 in988.1 mb 0.00 in0.0 mm 0.00 in0.0 mm 0.00 in0.0 mm
02:25 AM 28.2°F-2.1°C 23.0°F-5.0°C 83% Calm Calm -- 29.18 in988.1 mb 0.00 in0.0 mm 0.00 in0.0 mm 0.00 in0.0 mm
02:30 AM 28.2°F-2.1°C 23.0°F-5.0°C 83% Calm Calm -- 29.18 in988.1 mb 0.00 in0.0 mm 0.00 in0.0 mm 0.00 in0.0 mm
02:35 AM 28.0°F-2.2°C 23.0°F-5.0°C 83% Calm Calm -- 29.18 in988.1 mb 0.00 in0.0 mm 0.00 in0.0 mm 0.00 in0.0 mm
02:40 AM 27.7°F-2.4°C 21.2°F-6.0°C 83% Calm Calm -- 29.18 in988.1 mb 0.00 in0.0 mm 0.00 in0.0 mm 0.00 in0.0 mm
02:45 AM 27.3°F-2.6°C 21.2°F-6.0°C 83% Calm Calm -- 29.18 in988.1 mb 0.00 in0.0 mm 0.00 in0.0 mm 0.00 in0.0 mm
02:50 AM 27.3°F-2.6°C 21.2°F-6.0°C 83% Calm Calm -- 29.18 in988.1 mb 0.00 in0.0 mm 0.00 in0.0 mm 0.00 in0.0 mm
02:55 AM 27.1°F-2.7°C 21.2°F-6.0°C 83% Calm Calm -- 29.18 in988.1 mb 0.00 in0.0 mm 0.00 in0.0 mm 0.00 in0.0 mm
03:00 AM 27.0°F-2.8°C 21.2°F-6.0°C 83% Calm Calm -- 29.18 in988.1 mb 0.00 in0.0 mm 0.00 in0.0 mm 0.00 in0.0 mm
03:05 AM 26.8°F-2.9°C 21.2°F-6.0°C 83% Calm Calm -- 29.06 in984.1 mb 0.00 in0.0 mm 0.00 in0.0 mm 0.00 in0.0 mm
03:10 AM 26.8°F-2.9°C 21.2°F-6.0°C 83% 0.1 mph ESE0.2 kmh ESE 0.9 mph1.4 kmh 29.06 in984.1 mb 0.00 in0.0 mm 0.00 in0.0 mm 0.00 in0.0 mm
03:15 AM 26.8°F-2.9°C 21.2°F-6.0°C 83% 0.1 mph ESE0.2 kmh ESE 0.9 mph1.4 kmh 29.06 in984.1 mb 0.00 in0.0 mm 0.00 in0.0 mm 0.00 in0.0 mm
03:20 AM 26.6°F-3.0°C 21.2°F-6.0°C 83% Calm Calm -- 29.18 in988.1 mb 0.00 in0.0 mm 0.00 in0.0 mm 0.00 in0.0 mm
03:25 AM 26.6°F-3.0°C 21.2°F-6.0°C 83% Calm Calm -- 29.18 in988.1 mb 0.00 in0.0 mm 0.00 in0.0 mm 0.00 in0.0 mm
03:30 AM 26.4°F-3.1°C 21.2°F-6.0°C 83% Calm Calm -- 29.18 in988.1 mb 0.00 in0.0 mm 0.00 in0.0 mm 0.00 in0.0 mm
03:35 AM 26.4°F-3.1°C 21.2°F-6.0°C 83% Calm Calm -- 29.18 in988.1 mb 0.00 in0.0 mm 0.00 in0.0 mm 0.00 in0.0 mm
03:40 AM 26.1°F-3.3°C 21.2°F-6.0°C 83% 0.4 mph SW0.6 kmh SW 2.7 mph4.3 kmh 29.18 in988.1 mb 0.00 in0.0 mm 0.00 in0.0 mm 0.00 in0.0 mm
03:45 AM 26.1°F-3.3°C 21.2°F-6.0°C 83% 0.8 mph WSW1.3 kmh WSW 2.7 mph4.3 kmh 29.18 in988.1 mb 0.00 in0.0 mm 0.00 in0.0 mm 0.00 in0.0 mm
03:50 AM 26.1°F-3.3°C 21.2°F-6.0°C 83% 0.7 mph W1.1 kmh W 2.2 mph3.5 kmh 29.18 in988.1 mb 0.00 in0.0 mm 0.00 in0.0 mm 0.00 in0.0 mm
03:55 AM 26.1°F-3.3°C 21.2°F-6.0°C 83% 0.3 mph NW0.5 kmh NW 1.3 mph2.1 kmh 29.18 in988.1 mb 0.00 in0.0 mm 0.00 in0.0 mm 0.00 in0.0 mm
04:00 AM 25.9°F-3.4°C 21.2°F-6.0°C 83% 0.5 mph WNW0.8 kmh WNW 1.6 mph2.6 kmh 29.18 in988.1 mb 0.00 in0.0 mm 0.00 in0.0 mm 0.00 in0.0 mm
04:10 AM 26.2°F-3.2°C 21.2°F-6.0°C 83% 0.9 mph W1.4 kmh W 2.2 mph3.5 kmh 29.21 in989.2 mb 0.00 in0.0 mm 0.00 in0.0 mm 0.00 in0.0 mm
04:15 AM 26.4°F-3.1°C 21.2°F-6.0°C 83% 0.5 mph W0.8 kmh W 2.2 mph3.5 kmh 29.21 in989.2 mb 0.00 in0.0 mm 0.00 in0.0 mm 0.00 in0.0 mm
04:20 AM 26.1°F-3.3°C 21.2°F-6.0°C 83% 0.3 mph NW0.5 kmh NW 1.3 mph2.1 kmh 29.21 in989.2 mb 0.00 in0.0 mm 0.00 in0.0 mm 0.00 in0.0 mm
04:25 AM 26.1°F-3.3°C 21.2°F-6.0°C 83% 0.3 mph NW0.5 kmh NW 1.3 mph2.1 kmh 29.21 in989.2 mb 0.00 in0.0 mm 0.00 in0.0 mm 0.00 in0.0 mm
04:30 AM 25.7°F-3.5°C 19.4°F-7.0°C 83% 0.4 mph W0.6 kmh W 1.3 mph2.1 kmh 29.21 in989.2 mb 0.00 in0.0 mm 0.00 in0.0 mm 0.00 in0.0 mm
04:35 AM 25.5°F-3.6°C 19.4°F-7.0°C 83% 0.4 mph W0.6 kmh W 1.1 mph1.8 kmh 29.21 in989.2 mb 0.00 in0.0 mm 0.00 in0.0 mm 0.00 in0.0 mm
04:40 AM 25.5°F-3.6°C 19.4°F-7.0°C 83% 0.2 mph W0.3 kmh W 0.9 mph1.4 kmh 29.21 in989.2 mb 0.00 in0.0 mm 0.00 in0.0 mm 0.00 in0.0 mm
04:45 AM 25.9°F-3.4°C 21.2°F-6.0°C 83% 0.6 mph NW1.0 kmh NW 2.7 mph4.3 kmh 29.21 in989.2 mb 0.00 in0.0 mm 0.00 in0.0 mm 0.00 in0.0 mm
04:50 AM 25.9°F-3.4°C 21.2°F-6.0°C 83% 0.7 mph NW1.1 kmh NW 2.7 mph4.3 kmh 29.21 in989.2 mb 0.00 in0.0 mm 0.00 in0.0 mm 0.00 in0.0 mm
04:55 AM 25.7°F-3.5°C 19.4°F-7.0°C 83% 0.2 mph NNW0.3 kmh NNW 0.9 mph1.4 kmh 29.21 in989.2 mb 0.00 in0.0 mm 0.00 in0.0 mm 0.00 in0.0 mm
05:00 AM 25.7°F-3.5°C 19.4°F-7.0°C 83% 0.1 mph NW0.2 kmh NW 0.9 mph1.4 kmh 29.21 in989.2 mb 0.00 in0.0 mm 0.00 in0.0 mm 0.00 in0.0 mm
05:05 AM 25.3°F-3.7°C 19.4°F-7.0°C 83% 0.5 mph NW0.8 kmh NW 2.0 mph3.2 kmh 29.00 in982.1 mb 0.00 in0.0 mm 0.00 in0.0 mm 0.00 in0.0 mm
05:10 AM 25.7°F-3.5°C 19.4°F-7.0°C 83% 1.2 mph WNW1.9 kmh WNW 2.5 mph4.0 kmh 29.00 in982.1 mb 0.00 in0.0 mm 0.00 in0.0 mm 0.00 in0.0 mm
05:15 AM 26.4°F-3.1°C 21.2°F-6.0°C 83% 1.3 mph WNW2.1 kmh WNW 2.5 mph4.0 kmh 29.00 in982.1 mb 0.00 in0.0 mm 0.00 in0.0 mm 0.00 in0.0 mm
05:20 AM 26.4°F-3.1°C 21.2°F-6.0°C 83% 1.2 mph WNW1.9 kmh WNW 2.2 mph3.5 kmh 29.21 in989.2 mb 0.00 in0.0 mm 0.00 in0.0 mm 0.00 in0.0 mm
05:25 AM 26.4°F-3.1°C 21.2°F-6.0°C 83% 1.1 mph WNW1.8 kmh WNW 2.2 mph3.5 kmh 29.21 in989.2 mb 0.00 in0.0 mm 0.00 in0.0 mm 0.00 in0.0 mm
05:30 AM 26.2°F-3.2°C 21.2°F-6.0°C 83% 0.8 mph WNW1.3 kmh WNW 2.2 mph3.5 kmh 29.21 in989.2 mb 0.00 in0.0 mm 0.00 in0.0 mm 0.00 in0.0 mm
05:35 AM 26.1°F-3.3°C 21.2°F-6.0°C 83% 0.3 mph NW0.5 kmh NW 1.3 mph2.1 kmh 29.21 in989.2 mb 0.00 in0.0 mm 0.00 in0.0 mm 0.00 in0.0 mm
05:40 AM 26.2°F-3.2°C 21.2°F-6.0°C 83% 0.7 mph W1.1 kmh W 2.7 mph4.3 kmh 29.21 in989.2 mb 0.00 in0.0 mm 0.00 in0.0 mm 0.00 in0.0 mm
05:45 AM 26.2°F-3.2°C 21.2°F-6.0°C 83% 0.6 mph W1.0 kmh W 2.7 mph4.3 kmh 29.21 in989.2 mb 0.00 in0.0 mm 0.00 in0.0 mm 0.00 in0.0 mm
05:50 AM 25.5°F-3.6°C 19.4°F-7.0°C 83% 0.2 mph WSW0.3 kmh WSW 1.6 mph2.6 kmh 29.24 in990.2 mb 0.00 in0.0 mm 0.00 in0.0 mm 0.00 in0.0 mm
05:55 AM 25.7°F-3.5°C 19.4°F-7.0°C 83% 0.3 mph WSW0.5 kmh WSW 1.6 mph2.6 kmh 29.24 in990.2 mb 0.00 in0.0 mm 0.00 in0.0 mm 0.00 in0.0 mm
06:00 AM 26.1°F-3.3°C 21.2°F-6.0°C 83% 0.7 mph WSW1.1 kmh WSW 2.7 mph4.3 kmh 29.24 in990.2 mb 0.00 in0.0 mm 0.00 in0.0 mm 0.00 in0.0 mm
06:05 AM 25.5°F-3.6°C 19.4°F-7.0°C 83% 0.7 mph WSW1.1 kmh WSW 2.7 mph4.3 kmh 29.24 in990.2 mb 0.00 in0.0 mm 0.00 in0.0 mm 0.00 in0.0 mm
06:10 AM 25.3°F-3.7°C 19.4°F-7.0°C 83% 0.3 mph WSW0.5 kmh WSW 0.9 mph1.4 kmh 29.24 in990.2 mb 0.00 in0.0 mm 0.00 in0.0 mm 0.00 in0.0 mm
06:15 AM 25.0°F-3.9°C 19.4°F-7.0°C 83% 0.2 mph WNW0.3 kmh WNW 0.9 mph1.4 kmh 29.24 in990.2 mb 0.00 in0.0 mm 0.00 in0.0 mm 0.00 in0.0 mm
06:20 AM 25.0°F-3.9°C 19.4°F-7.0°C 83% 0.2 mph W0.3 kmh W 0.9 mph1.4 kmh 29.24 in990.2 mb 0.00 in0.0 mm 0.00 in0.0 mm 0.00 in0.0 mm
06:25 AM 24.8°F-4.0°C 19.4°F-7.0°C 83% 0.4 mph WNW0.6 kmh WNW 0.9 mph1.4 kmh 29.24 in990.2 mb 0.00 in0.0 mm 0.00 in0.0 mm 0.00 in0.0 mm
06:30 AM 24.8°F-4.0°C 19.4°F-7.0°C 83% 0.8 mph WNW1.3 kmh WNW 1.6 mph2.6 kmh 29.24 in990.2 mb 0.00 in0.0 mm 0.00 in0.0 mm 0.00 in0.0 mm
06:35 AM 25.3°F-3.7°C 19.4°F-7.0°C 83% 0.9 mph WNW1.4 kmh WNW 2.5 mph4.0 kmh 29.24 in990.2 mb 0.00 in0.0 mm 0.00 in0.0 mm 0.00 in0.0 mm
06:40 AM 25.5°F-3.6°C 19.4°F-7.0°C 83% 1.3 mph W2.1 kmh W 2.9 mph4.7 kmh 29.24 in990.2 mb 0.00 in0.0 mm 0.00 in0.0 mm 0.00 in0.0 mm
06:45 AM 25.7°F-3.5°C 19.4°F-7.0°C 83% 1.3 mph WNW2.1 kmh WNW 2.9 mph4.7 kmh 29.24 in990.2 mb 0.00 in0.0 mm 0.00 in0.0 mm 0.00 in0.0 mm
06:50 AM 25.3°F-3.7°C 19.4°F-7.0°C 83% 0.9 mph NW1.4 kmh NW 2.2 mph3.5 kmh 29.24 in990.2 mb 0.00 in0.0 mm 0.00 in0.0 mm 0.00 in0.0 mm
06:55 AM 25.0°F-3.9°C 19.4°F-7.0°C 83% 0.9 mph NW1.4 kmh NW 2.2 mph3.5 kmh 29.24 in990.2 mb 0.00 in0.0 mm 0.00 in0.0 mm 0.00 in0.0 mm
07:00 AM 24.8°F-4.0°C 19.4°F-7.0°C 83% 0.9 mph NW1.4 kmh NW 2.2 mph3.5 kmh 29.24 in990.2 mb 0.00 in0.0 mm 0.00 in0.0 mm 0.00 in0.0 mm
07:05 AM 25.2°F-3.8°C 19.4°F-7.0°C 83% 0.5 mph WNW0.8 kmh WNW 1.3 mph2.1 kmh 29.24 in990.2 mb 0.00 in0.0 mm 0.00 in0.0 mm 0.00 in0.0 mm
07:10 AM 25.2°F-3.8°C 19.4°F-7.0°C 83% 0.3 mph W0.5 kmh W 0.9 mph1.4 kmh 29.24 in990.2 mb 0.00 in0.0 mm 0.00 in0.0 mm 0.00 in0.0 mm
07:15 AM 25.0°F-3.9°C 19.4°F-7.0°C 83% 0.4 mph WSW0.6 kmh WSW 1.1 mph1.8 kmh 29.24 in990.2 mb 0.00 in0.0 mm 0.00 in0.0 mm 0.00 in0.0 mm
07:20 AM 25.3°F-3.7°C 19.4°F-7.0°C 83% 0.7 mph WSW1.1 kmh WSW 1.3 mph2.1 kmh 29.27 in991.2 mb 0.00 in0.0 mm 0.00 in0.0 mm 0.00 in0.0 mm
07:25 AM 25.0°F-3.9°C 19.4°F-7.0°C 83% 0.3 mph WSW0.5 kmh WSW 1.3 mph2.1 kmh 29.27 in991.2 mb 0.00 in0.0 mm 0.00 in0.0 mm 0.00 in0.0 mm
07:30 AM 24.8°F-4.0°C 19.4°F-7.0°C 83% Calm Calm -- 29.27 in991.2 mb 0.00 in0.0 mm 0.00 in0.0 mm 0.00 in0.0 mm
07:35 AM 25.3°F-3.7°C 19.4°F-7.0°C 83% Calm Calm -- 29.27 in991.2 mb 0.00 in0.0 mm 0.00 in0.0 mm 0.00 in0.0 mm
07:40 AM 25.2°F-3.8°C 19.4°F-7.0°C 83% 0.4 mph SSW0.6 kmh SSW 2.7 mph4.3 kmh 29.27 in991.2 mb 0.00 in0.0 mm 0.00 in0.0 mm 0.00 in0.0 mm
07:45 AM 24.8°F-4.0°C 19.4°F-7.0°C 83% 0.4 mph SSW0.6 kmh SSW 2.7 mph4.3 kmh 29.27 in991.2 mb 0.00 in0.0 mm 0.00 in0.0 mm 0.00 in0.0 mm
07:50 AM 25.0°F-3.9°C 19.4°F-7.0°C 83% 0.1 mph WSW0.2 kmh WSW 0.9 mph1.4 kmh 29.27 in991.2 mb 0.00 in0.0 mm 0.00 in0.0 mm 0.00 in0.0 mm
07:55 AM 24.6°F-4.1°C 19.4°F-7.0°C 83% 0.1 mph WSW0.2 kmh WSW 0.9 mph1.4 kmh 29.27 in991.2 mb 0.00 in0.0 mm 0.00 in0.0 mm 0.00 in0.0 mm
08:00 AM 24.8°F-4.0°C 19.4°F-7.0°C 83% 0.3 mph WNW0.5 kmh WNW 0.9 mph1.4 kmh 29.27 in991.2 mb 0.00 in0.0 mm 0.00 in0.0 mm 0.00 in0.0 mm
08:05 AM 25.0°F-3.9°C 19.4°F-7.0°C 83% 0.6 mph WNW1.0 kmh WNW 2.2 mph3.5 kmh 29.27 in991.2 mb 0.00 in0.0 mm 0.00 in0.0 mm 0.00 in0.0 mm
08:10 AM 24.8°F-4.0°C 19.4°F-7.0°C 83% 0.4 mph WNW0.6 kmh WNW 2.2 mph3.5 kmh 29.27 in991.2 mb 0.00 in0.0 mm 0.00 in0.0 mm 0.00 in0.0 mm
08:15 AM 24.6°F-4.1°C 19.4°F-7.0°C 83% Calm Calm -- 29.27 in991.2 mb 0.00 in0.0 mm 0.00 in0.0 mm 0.00 in0.0 mm
08:20 AM 24.1°F-4.4°C 19.4°F-7.0°C 83% Calm Calm -- 29.30 in992.2 mb 0.00 in0.0 mm 0.00 in0.0 mm 0.00 in0.0 mm
08:25 AM 24.1°F-4.4°C 19.4°F-7.0°C 83% Calm Calm -- 29.30 in992.2 mb 0.00 in0.0 mm 0.00 in0.0 mm 0.00 in0.0 mm
08:30 AM 24.1°F-4.4°C 19.4°F-7.0°C 83% 0.2 mph WNW0.3 kmh WNW 0.9 mph1.4 kmh 29.30 in992.2 mb 0.00 in0.0 mm 0.00 in0.0 mm 0.00 in0.0 mm
08:35 AM 24.1°F-4.4°C 19.4°F-7.0°C 83% 0.8 mph NW1.3 kmh NW 2.0 mph3.2 kmh 29.30 in992.2 mb 0.00 in0.0 mm 0.00 in0.0 mm 0.00 in0.0 mm
08:40 AM 24.8°F-4.0°C 19.4°F-7.0°C 83% 1.1 mph NW1.8 kmh NW 2.2 mph3.5 kmh 29.30 in992.2 mb 0.00 in0.0 mm 0.00 in0.0 mm 0.00 in0.0 mm
08:45 AM 25.5°F-3.6°C 21.2°F-6.0°C 84% 0.8 mph NNW1.3 kmh NNW 2.2 mph3.5 kmh 29.30 in992.2 mb 0.00 in0.0 mm 0.00 in0.0 mm 0.00 in0.0 mm
08:50 AM 25.5°F-3.6°C 21.2°F-6.0°C 84% 1.0 mph NNW1.6 kmh NNW 3.4 mph5.5 kmh 29.30 in992.2 mb 0.00 in0.0 mm 0.00 in0.0 mm 0.00 in0.0 mm
08:55 AM 25.5°F-3.6°C 21.2°F-6.0°C 84% 1.3 mph NNW2.1 kmh NNW 3.4 mph5.5 kmh 29.30 in992.2 mb 0.00 in0.0 mm 0.00 in0.0 mm 0.00 in0.0 mm
09:00 AM 25.2°F-3.8°C 21.2°F-6.0°C 84% 1.0 mph WNW1.6 kmh WNW 1.6 mph2.6 kmh 29.30 in992.2 mb 0.00 in0.0 mm 0.00 in0.0 mm 0.00 in0.0 mm
09:05 AM 25.3°F-3.7°C 21.2°F-6.0°C 84% 0.4 mph WSW0.6 kmh WSW 1.3 mph2.1 kmh 29.15 in987.1 mb 0.00 in0.0 mm 0.00 in0.0 mm 0.00 in0.0 mm
09:10 AM 25.7°F-3.5°C 21.2°F-6.0°C 84% 0.5 mph NW0.8 kmh NW 1.3 mph2.1 kmh 29.15 in987.1 mb 0.00 in0.0 mm 0.00 in0.0 mm 0.00 in0.0 mm
09:15 AM 25.5°F-3.6°C 21.2°F-6.0°C 84% 0.6 mph NW1.0 kmh NW 1.1 mph1.8 kmh 29.15 in987.1 mb 0.00 in0.0 mm 0.00 in0.0 mm 0.00 in0.0 mm
09:20 AM 25.7°F-3.5°C 21.2°F-6.0°C 84% 0.3 mph WNW0.5 kmh WNW 1.3 mph2.1 kmh 29.30 in992.2 mb 0.00 in0.0 mm 0.00 in0.0 mm 0.00 in0.0 mm
09:25 AM 25.5°F-3.6°C 21.2°F-6.0°C 84% 0.4 mph NW0.6 kmh NW 1.3 mph2.1 kmh 29.30 in992.2 mb 0.00 in0.0 mm 0.00 in0.0 mm 0.00 in0.0 mm
09:30 AM 25.7°F-3.5°C 21.2°F-6.0°C 84% 0.5 mph NW0.8 kmh NW 1.3 mph2.1 kmh 29.30 in992.2 mb 0.00 in0.0 mm 0.00 in0.0 mm 0.00 in0.0 mm
09:35 AM 26.2°F-3.2°C 21.2°F-6.0°C 84% 0.7 mph W1.1 kmh W 1.3 mph2.1 kmh 29.33 in993.2 mb 0.00 in0.0 mm 0.00 in0.0 mm 0.00 in0.0 mm
09:40 AM 26.4°F-3.1°C 21.2°F-6.0°C 84% 0.5 mph WSW0.8 kmh WSW 1.3 mph2.1 kmh 29.33 in993.2 mb 0.00 in0.0 mm 0.00 in0.0 mm 0.00 in0.0 mm
09:45 AM 26.6°F-3.0°C 21.2°F-6.0°C 84% 0.2 mph WSW0.3 kmh WSW 0.9 mph1.4 kmh 29.33 in993.2 mb 0.00 in0.0 mm 0.00 in0.0 mm 0.00 in0.0 mm
09:50 AM 26.8°F-2.9°C 21.2°F-6.0°C 84% 0.3 mph SW0.5 kmh SW 0.9 mph1.4 kmh 29.33 in993.2 mb 0.00 in0.0 mm 0.00 in0.0 mm 0.00 in0.0 mm
09:55 AM 26.8°F-2.9°C 21.2°F-6.0°C 84% 0.7 mph WSW1.1 kmh WSW 1.6 mph2.6 kmh 29.33 in993.2 mb 0.00 in0.0 mm 0.00 in0.0 mm 0.00 in0.0 mm
10:00 AM 27.1°F-2.7°C 21.2°F-6.0°C 84% 1.0 mph WSW1.6 kmh WSW 1.6 mph2.6 kmh 29.33 in993.2 mb 0.00 in0.0 mm 0.00 in0.0 mm 0.00 in0.0 mm
10:05 AM 27.1°F-2.7°C 21.2°F-6.0°C 84% 0.7 mph WSW1.1 kmh WSW 1.6 mph2.6 kmh 29.33 in993.2 mb 0.00 in0.0 mm 0.00 in0.0 mm 0.00 in0.0 mm
10:10 AM 27.3°F-2.6°C 21.2°F-6.0°C 84% 0.9 mph WSW1.4 kmh WSW 1.6 mph2.6 kmh 29.33 in993.2 mb 0.00 in0.0 mm 0.00 in0.0 mm 0.00 in0.0 mm
10:15 AM 27.5°F-2.5°C 21.2°F-6.0°C 84% 1.4 mph WSW2.3 kmh WSW 2.5 mph4.0 kmh 29.33 in993.2 mb 0.00 in0.0 mm 0.00 in0.0 mm 0.00 in0.0 mm
10:20 AM 27.9°F-2.3°C 23.0°F-5.0°C 84% 1.1 mph WSW1.8 kmh WSW 2.5 mph4.0 kmh 29.33 in993.2 mb 0.00 in0.0 mm 0.00 in0.0 mm 0.00 in0.0 mm
10:25 AM 28.0°F-2.2°C 23.0°F-5.0°C 84% 1.0 mph WSW1.6 kmh WSW 1.3 mph2.1 kmh 29.33 in993.2 mb 0.00 in0.0 mm 0.00 in0.0 mm 0.00 in0.0 mm
10:30 AM 28.4°F-2.0°C 23.0°F-5.0°C 84% 1.1 mph WSW1.8 kmh WSW 2.0 mph3.2 kmh 29.33 in993.2 mb 0.00 in0.0 mm 0.00 in0.0 mm 0.00 in0.0 mm
10:35 AM 28.6°F-1.9°C 23.0°F-5.0°C 84% 1.1 mph WSW1.8 kmh WSW 2.0 mph3.2 kmh 29.33 in993.2 mb 0.00 in0.0 mm 0.00 in0.0 mm 0.00 in0.0 mm
10:40 AM 28.8°F-1.8°C 23.0°F-5.0°C 84% 0.7 mph WSW1.1 kmh WSW 1.6 mph2.6 kmh 29.33 in993.2 mb 0.00 in0.0 mm 0.00 in0.0 mm 0.00 in0.0 mm
10:45 AM 28.9°F-1.7°C 23.0°F-5.0°C 84% 0.9 mph WSW1.4 kmh WSW 2.5 mph4.0 kmh 29.33 in993.2 mb 0.00 in0.0 mm 0.00 in0.0 mm 0.00 in0.0 mm
10:50 AM 29.1°F-1.6°C 23.0°F-5.0°C 84% 0.9 mph WSW1.4 kmh WSW 2.5 mph4.0 kmh 29.33 in993.2 mb 0.00 in0.0 mm 0.00 in0.0 mm 0.00 in0.0 mm
10:55 AM 29.5°F-1.4°C 24.8°F-4.0°C 84% 1.0 mph W1.6 kmh W 2.0 mph3.2 kmh 29.33 in993.2 mb 0.00 in0.0 mm 0.00 in0.0 mm 0.00 in0.0 mm
11:00 AM 29.7°F-1.3°C 24.8°F-4.0°C 84% 1.2 mph WNW1.9 kmh WNW 2.0 mph3.2 kmh 29.33 in993.2 mb 0.00 in0.0 mm 0.00 in0.0 mm 0.00 in0.0 mm
11:05 AM 30.0°F-1.1°C 24.8°F-4.0°C 84% 1.2 mph NW1.9 kmh NW 2.5 mph4.0 kmh 29.33 in993.2 mb 0.00 in0.0 mm 0.00 in0.0 mm 0.00 in0.0 mm
11:10 AM 30.2°F-1.0°C 24.8°F-4.0°C 84% 0.8 mph NW1.3 kmh NW 2.5 mph4.0 kmh 29.33 in993.2 mb 0.00 in0.0 mm 0.00 in0.0 mm 0.00 in0.0 mm
11:15 AM 30.4°F-0.9°C 24.8°F-4.0°C 84% 0.4 mph NW0.6 kmh NW 1.3 mph2.1 kmh 29.33 in993.2 mb 0.00 in0.0 mm 0.00 in0.0 mm 0.00 in0.0 mm
11:20 AM 30.6°F-0.8°C 24.8°F-4.0°C 84% 0.5 mph NW0.8 kmh NW 1.3 mph2.1 kmh 29.33 in993.2 mb 0.00 in0.0 mm 0.00 in0.0 mm 0.00 in0.0 mm
11:25 AM 31.1°F-0.5°C 24.8°F-4.0°C 84% 0.2 mph NW0.3 kmh NW 0.9 mph1.4 kmh 29.33 in993.2 mb 0.00 in0.0 mm 0.00 in0.0 mm 0.00 in0.0 mm
11:30 AM 31.5°F-0.3°C 26.6°F-3.0°C 85% 0.2 mph NW0.3 kmh NW 1.1 mph1.8 kmh 29.33 in993.2 mb 0.00 in0.0 mm 0.00 in0.0 mm 0.00 in0.0 mm
11:35 AM 32.0°F0.0°C 26.6°F-3.0°C 85% 0.8 mph W1.3 kmh W 2.0 mph3.2 kmh 29.33 in993.2 mb 0.00 in0.0 mm 0.00 in0.0 mm 0.00 in0.0 mm
11:40 AM 33.6°F0.9°C 30.2°F-1.0°C 85% 1.6 mph WSW2.6 kmh WSW 2.7 mph4.3 kmh 29.33 in993.2 mb 0.00 in0.0 mm 0.00 in0.0 mm 0.00 in0.0 mm
11:45 AM 35.1°F1.7°C 30.2°F-1.0°C 84% 1.6 mph WSW2.6 kmh WSW 2.7 mph4.3 kmh 29.33 in993.2 mb 0.00 in0.0 mm 0.00 in0.0 mm 0.00 in0.0 mm
11:50 AM 36.7°F2.6°C 33.8°F1.0°C 84% 1.1 mph SW1.8 kmh SW 2.2 mph3.5 kmh 29.33 in993.2 mb 0.00 in0.0 mm 0.00 in0.0 mm 0.00 in0.0 mm
11:55 AM 38.1°F3.4°C 33.8°F1.0°C 83% 1.3 mph WSW2.1 kmh WSW 2.5 mph4.0 kmh 29.33 in993.2 mb 0.00 in0.0 mm 0.00 in0.0 mm 0.00 in0.0 mm
12:00 PM 38.8°F3.8°C 33.8°F1.0°C 83% 1.6 mph W2.6 kmh W 2.5 mph4.0 kmh 29.33 in993.2 mb 0.00 in0.0 mm 0.00 in0.0 mm 0.00 in0.0 mm
12:05 PM 39.4°F4.1°C 33.8°F1.0°C 82% 0.8 mph NW1.3 kmh NW 2.2 mph3.5 kmh 29.36 in994.2 mb 0.00 in0.0 mm 0.00 in0.0 mm 0.00 in0.0 mm
12:10 PM 39.4°F4.1°C 33.8°F1.0°C 81% 0.5 mph WSW0.8 kmh WSW 2.5 mph4.0 kmh 29.36 in994.2 mb 0.00 in0.0 mm 0.00 in0.0 mm 0.00 in0.0 mm
12:15 PM 40.5°F4.7°C 35.6°F2.0°C 80% 1.0 mph WSW1.6 kmh WSW 2.5 mph4.0 kmh 29.36 in994.2 mb 0.00 in0.0 mm 0.00 in0.0 mm 0.00 in0.0 mm
12:20 PM 39.6°F4.2°C 33.8°F1.0°C 79% 1.5 mph WSW2.4 kmh WSW 3.1 mph5.0 kmh 29.36 in994.2 mb 0.00 in0.0 mm 0.00 in0.0 mm 0.00 in0.0 mm
12:25 PM 41.0°F5.0°C 35.6°F2.0°C 79% 2.1 mph WSW3.4 kmh WSW 3.6 mph5.8 kmh 29.36 in994.2 mb 0.00 in0.0 mm 0.00 in0.0 mm 0.00 in0.0 mm
12:30 PM 41.4°F5.2°C 35.6°F2.0°C 79% 2.3 mph WSW3.7 kmh WSW 3.6 mph5.8 kmh 29.36 in994.2 mb 0.00 in0.0 mm 0.00 in0.0 mm 0.00 in0.0 mm
12:35 PM 42.4°F5.8°C 37.4°F3.0°C 78% 2.0 mph WSW3.2 kmh WSW 3.6 mph5.8 kmh 29.36 in994.2 mb 0.00 in0.0 mm 0.00 in0.0 mm 0.00 in0.0 mm
12:40 PM 43.3°F6.3°C 37.4°F3.0°C 77% 1.6 mph W2.6 kmh W 2.7 mph4.3 kmh 29.36 in994.2 mb 0.00 in0.0 mm 0.00 in0.0 mm 0.00 in0.0 mm
12:45 PM 43.7°F6.5°C 37.4°F3.0°C 77% 1.5 mph WSW2.4 kmh WSW 2.7 mph4.3 kmh 29.36 in994.2 mb 0.00 in0.0 mm 0.00 in0.0 mm 0.00 in0.0 mm
12:50 PM 43.9°F6.6°C 37.4°F3.0°C 76% 1.5 mph WSW2.4 kmh WSW 2.9 mph4.7 kmh 29.36 in994.2 mb 0.00 in0.0 mm 0.00 in0.0 mm 0.00 in0.0 mm
12:55 PM 43.7°F6.5°C 37.4°F3.0°C 76% 2.1 mph W3.4 kmh W 3.8 mph6.1 kmh 29.36 in994.2 mb 0.00 in0.0 mm 0.00 in0.0 mm 0.00 in0.0 mm
01:00 PM 44.4°F6.9°C 37.4°F3.0°C 76% 2.0 mph W3.2 kmh W 4.5 mph7.2 kmh 29.36 in994.2 mb 0.00 in0.0 mm 0.00 in0.0 mm 0.00 in0.0 mm
01:05 PM 43.9°F6.6°C 37.4°F3.0°C 75% 2.1 mph W3.4 kmh W 4.5 mph7.2 kmh 29.36 in994.2 mb 0.00 in0.0 mm 0.00 in0.0 mm 0.00 in0.0 mm
01:10 PM 44.1°F6.7°C 37.4°F3.0°C 74% 2.4 mph WNW3.9 kmh WNW 4.5 mph7.2 kmh 29.36 in994.2 mb 0.00 in0.0 mm 0.00 in0.0 mm 0.00 in0.0 mm
01:15 PM 44.1°F6.7°C 37.4°F3.0°C 74% 2.4 mph WNW3.9 kmh WNW 3.6 mph5.8 kmh 29.36 in994.2 mb 0.00 in0.0 mm 0.00 in0.0 mm 0.00 in0.0 mm
01:20 PM 43.2°F6.2°C 35.6°F2.0°C 74% 2.9 mph WNW4.7 kmh WNW 4.3 mph6.9 kmh 29.36 in994.2 mb 0.00 in0.0 mm 0.00 in0.0 mm 0.00 in0.0 mm
01:25 PM 43.0°F6.1°C 35.6°F2.0°C 74% 2.5 mph WNW4.0 kmh WNW 4.3 mph6.9 kmh 29.36 in994.2 mb 0.00 in0.0 mm 0.00 in0.0 mm 0.00 in0.0 mm
01:30 PM 42.8°F6.0°C 35.6°F2.0°C 74% 1.8 mph W2.9 kmh W 2.7 mph4.3 kmh 29.36 in994.2 mb 0.00 in0.0 mm 0.00 in0.0 mm 0.00 in0.0 mm
01:35 PM 42.3°F5.7°C 35.6°F2.0°C 74% 2.3 mph WNW3.7 kmh WNW 3.6 mph5.8 kmh 29.36 in994.2 mb 0.00 in0.0 mm 0.00 in0.0 mm 0.00 in0.0 mm
01:40 PM 41.9°F5.5°C 35.6°F2.0°C 74% 2.6 mph NW4.2 kmh NW 3.6 mph5.8 kmh 29.36 in994.2 mb 0.00 in0.0 mm 0.00 in0.0 mm 0.00 in0.0 mm
01:45 PM 41.0°F5.0°C 33.8°F1.0°C 74% 2.3 mph WNW3.7 kmh WNW 3.4 mph5.5 kmh 29.36 in994.2 mb 0.00 in0.0 mm 0.00 in0.0 mm 0.00 in0.0 mm
01:50 PM 40.5°F4.7°C 33.8°F1.0°C 74% 2.0 mph WNW3.2 kmh WNW 3.6 mph5.8 kmh 29.36 in994.2 mb 0.00 in0.0 mm 0.00 in0.0 mm 0.00 in0.0 mm
01:55 PM 40.3°F4.6°C 33.8°F1.0°C 74% 2.0 mph NW3.2 kmh NW 3.6 mph5.8 kmh 29.36 in994.2 mb 0.00 in0.0 mm 0.00 in0.0 mm 0.00 in0.0 mm
02:00 PM 40.1°F4.5°C 33.8°F1.0°C 74% 1.8 mph WNW2.9 kmh WNW 2.9 mph4.7 kmh 29.36 in994.2 mb 0.00 in0.0 mm 0.00 in0.0 mm 0.00 in0.0 mm
02:05 PM 39.9°F4.4°C 32.0°F0.0°C 74% 1.7 mph NW2.7 kmh NW 2.9 mph4.7 kmh 29.36 in994.2 mb 0.00 in0.0 mm 0.00 in0.0 mm 0.00 in0.0 mm
02:10 PM 39.9°F4.4°C 32.0°F0.0°C 74% 2.1 mph NW3.4 kmh NW 3.4 mph5.5 kmh 29.36 in994.2 mb 0.00 in0.0 mm 0.00 in0.0 mm 0.00 in0.0 mm
02:15 PM 39.6°F4.2°C 32.0°F0.0°C 74% 2.7 mph NW4.3 kmh NW 3.8 mph6.1 kmh 29.36 in994.2 mb 0.00 in0.0 mm 0.00 in0.0 mm 0.00 in0.0 mm
02:20 PM 39.4°F4.1°C 32.0°F0.0°C 74% 2.5 mph NW4.0 kmh NW 3.8 mph6.1 kmh 29.36 in994.2 mb 0.00 in0.0 mm 0.00 in0.0 mm 0.00 in0.0 mm
02:25 PM 39.2°F4.0°C 32.0°F0.0°C 74% 1.5 mph NW2.4 kmh NW 3.6 mph5.8 kmh 29.36 in994.2 mb 0.00 in0.0 mm 0.00 in0.0 mm 0.00 in0.0 mm
02:30 PM 39.2°F4.0°C 32.0°F0.0°C 74% 1.3 mph NW2.1 kmh NW 2.7 mph4.3 kmh 29.36 in994.2 mb 0.00 in0.0 mm 0.00 in0.0 mm 0.00 in0.0 mm
02:35 PM 39.0°F3.9°C 32.0°F0.0°C 74% 1.2 mph NW1.9 kmh NW 2.7 mph4.3 kmh 29.36 in994.2 mb 0.00 in0.0 mm 0.00 in0.0 mm 0.00 in0.0 mm
02:40 PM 38.8°F3.8°C 32.0°F0.0°C 74% 1.1 mph W1.8 kmh W 3.1 mph5.0 kmh 29.36 in994.2 mb 0.00 in0.0 mm 0.00 in0.0 mm 0.00 in0.0 mm
02:45 PM 38.7°F3.7°C 32.0°F0.0°C 74% 1.4 mph W2.3 kmh W 3.1 mph5.0 kmh 29.36 in994.2 mb 0.00 in0.0 mm 0.00 in0.0 mm 0.00 in0.0 mm
02:50 PM 38.3°F3.5°C 32.0°F0.0°C 74% 1.2 mph W1.9 kmh W 2.7 mph4.3 kmh 29.39 in995.3 mb 0.00 in0.0 mm 0.00 in0.0 mm 0.00 in0.0 mm
02:55 PM 38.3°F3.5°C 32.0°F0.0°C 74% 1.1 mph NW1.8 kmh NW 3.1 mph5.0 kmh 29.39 in995.3 mb 0.00 in0.0 mm 0.00 in0.0 mm 0.00 in0.0 mm
03:00 PM 38.1°F3.4°C 30.2°F-1.0°C 74% 1.4 mph NW2.3 kmh NW 3.1 mph5.0 kmh 29.39 in995.3 mb 0.00 in0.0 mm 0.00 in0.0 mm 0.00 in0.0 mm
03:05 PM 37.9°F3.3°C 30.2°F-1.0°C 74% 1.7 mph NW2.7 kmh NW 3.1 mph5.0 kmh 29.21 in989.2 mb 0.00 in0.0 mm 0.00 in0.0 mm 0.00 in0.0 mm
03:10 PM 37.6°F3.1°C 30.2°F-1.0°C 74% 1.4 mph W2.3 kmh W 2.7 mph4.3 kmh 29.21 in989.2 mb 0.00 in0.0 mm 0.00 in0.0 mm 0.00 in0.0 mm
03:15 PM 37.6°F3.1°C 30.2°F-1.0°C 74% 1.4 mph W2.3 kmh W 2.7 mph4.3 kmh 29.21 in989.2 mb 0.00 in0.0 mm 0.00 in0.0 mm 0.00 in0.0 mm
03:20 PM 37.4°F3.0°C 30.2°F-1.0°C 74% 1.2 mph W1.9 kmh W 2.9 mph4.7 kmh 29.39 in995.3 mb 0.00 in0.0 mm 0.00 in0.0 mm 0.00 in0.0 mm
03:25 PM 37.2°F2.9°C 30.2°F-1.0°C 74% 1.5 mph WSW2.4 kmh WSW 3.4 mph5.5 kmh 29.39 in995.3 mb 0.00 in0.0 mm 0.00 in0.0 mm 0.00 in0.0 mm
03:30 PM 37.0°F2.8°C 30.2°F-1.0°C 75% 2.4 mph WSW3.9 kmh WSW 3.4 mph5.5 kmh 29.39 in995.3 mb 0.00 in0.0 mm 0.00 in0.0 mm 0.00 in0.0 mm
03:35 PM 36.9°F2.7°C 30.2°F-1.0°C 75% 3.2 mph WSW5.1 kmh WSW 5.4 mph8.7 kmh 29.39 in995.3 mb 0.00 in0.0 mm 0.00 in0.0 mm 0.00 in0.0 mm
03:40 PM 36.5°F2.5°C 30.2°F-1.0°C 74% 2.8 mph WSW4.5 kmh WSW 5.4 mph8.7 kmh 29.39 in995.3 mb 0.00 in0.0 mm 0.00 in0.0 mm 0.00 in0.0 mm
03:45 PM 36.1°F2.3°C 30.2°F-1.0°C 74% 2.1 mph WSW3.4 kmh WSW 3.6 mph5.8 kmh 29.39 in995.3 mb 0.00 in0.0 mm 0.00 in0.0 mm 0.00 in0.0 mm
03:50 PM 36.0°F2.2°C 28.4°F-2.0°C 74% 1.9 mph WSW3.1 kmh WSW 3.4 mph5.5 kmh 29.39 in995.3 mb 0.00 in0.0 mm 0.00 in0.0 mm 0.00 in0.0 mm
03:55 PM 35.6°F2.0°C 28.4°F-2.0°C 74% 1.8 mph WSW2.9 kmh WSW 3.4 mph5.5 kmh 29.39 in995.3 mb 0.00 in0.0 mm 0.00 in0.0 mm 0.00 in0.0 mm
04:00 PM 35.4°F1.9°C 28.4°F-2.0°C 74% 1.7 mph WSW2.7 kmh WSW 2.9 mph4.7 kmh 29.39 in995.3 mb 0.00 in0.0 mm 0.00 in0.0 mm 0.00 in0.0 mm
04:05 PM 34.9°F1.6°C 28.4°F-2.0°C 74% 1.3 mph WSW2.1 kmh WSW 2.2 mph3.5 kmh 29.39 in995.3 mb 0.00 in0.0 mm 0.00 in0.0 mm 0.00 in0.0 mm
04:10 PM 34.7°F1.5°C 28.4°F-2.0°C 74% 1.0 mph WSW1.6 kmh WSW 2.0 mph3.2 kmh 29.39 in995.3 mb 0.00 in0.0 mm 0.00 in0.0 mm 0.00 in0.0 mm
04:15 PM 34.3°F1.3°C 28.4°F-2.0°C 75% 0.9 mph WSW1.4 kmh WSW 2.0 mph3.2 kmh 29.39 in995.3 mb 0.00 in0.0 mm 0.00 in0.0 mm 0.00 in0.0 mm
04:20 PM 34.2°F1.2°C 28.4°F-2.0°C 75% 0.9 mph WSW1.4 kmh WSW 2.0 mph3.2 kmh 29.39 in995.3 mb 0.00 in0.0 mm 0.00 in0.0 mm 0.00 in0.0 mm
04:25 PM 34.2°F1.2°C 28.4°F-2.0°C 75% 1.1 mph WSW1.8 kmh WSW 2.0 mph3.2 kmh 29.39 in995.3 mb 0.00 in0.0 mm 0.00 in0.0 mm 0.00 in0.0 mm
04:30 PM 33.6°F0.9°C 26.6°F-3.0°C 75% 0.8 mph WSW1.3 kmh WSW 1.6 mph2.6 kmh 29.39 in995.3 mb 0.00 in0.0 mm 0.00 in0.0 mm 0.00 in0.0 mm
04:35 PM 32.9°F0.5°C 26.6°F-3.0°C 75% 0.2 mph WSW0.3 kmh WSW 1.3 mph2.1 kmh 29.39 in995.3 mb 0.00 in0.0 mm 0.00 in0.0 mm 0.00 in0.0 mm
04:40 PM 32.7°F0.4°C 26.6°F-3.0°C 75% 0.4 mph WSW0.6 kmh WSW 1.3 mph2.1 kmh 29.39 in995.3 mb 0.00 in0.0 mm 0.00 in0.0 mm 0.00 in0.0 mm
04:45 PM 32.5°F0.3°C 26.6°F-3.0°C 75% 1.0 mph WSW1.6 kmh WSW 3.1 mph5.0 kmh 29.39 in995.3 mb 0.00 in0.0 mm 0.00 in0.0 mm 0.00 in0.0 mm
04:50 PM 32.2°F0.1°C 26.6°F-3.0°C 75% 0.8 mph WSW1.3 kmh WSW 3.1 mph5.0 kmh 29.41 in995.9 mb 0.00 in0.0 mm 0.00 in0.0 mm 0.00 in0.0 mm
04:55 PM 32.0°F0.0°C 23.0°F-5.0°C 76% 0.5 mph WSW0.8 kmh WSW 1.1 mph1.8 kmh 29.41 in995.9 mb 0.00 in0.0 mm 0.00 in0.0 mm 0.00 in0.0 mm
05:00 PM 32.0°F0.0°C 23.0°F-5.0°C 76% 0.6 mph WSW1.0 kmh WSW 1.1 mph1.8 kmh 29.41 in995.9 mb 0.00 in0.0 mm 0.00 in0.0 mm 0.00 in0.0 mm
05:05 PM 31.6°F-0.2°C 23.0°F-5.0°C 76% 0.4 mph WSW0.6 kmh WSW 1.1 mph1.8 kmh 29.41 in995.9 mb 0.00 in0.0 mm 0.00 in0.0 mm 0.00 in0.0 mm
05:10 PM 31.1°F-0.5°C 23.0°F-5.0°C 76% 0.1 mph WSW0.2 kmh WSW 0.9 mph1.4 kmh 29.41 in995.9 mb 0.00 in0.0 mm 0.00 in0.0 mm 0.00 in0.0 mm
05:15 PM 30.9°F-0.6°C 23.0°F-5.0°C 76% Calm Calm -- 29.41 in995.9 mb 0.00 in0.0 mm 0.00 in0.0 mm 0.00 in0.0 mm
05:20 PM 30.6°F-0.8°C 23.0°F-5.0°C 76% Calm Calm -- 29.41 in995.9 mb 0.00 in0.0 mm 0.00 in0.0 mm 0.00 in0.0 mm
05:25 PM 30.6°F-0.8°C 23.0°F-5.0°C 76% Calm Calm -- 29.41 in995.9 mb 0.00 in0.0 mm 0.00 in0.0 mm 0.00 in0.0 mm
05:30 PM 30.6°F-0.8°C 23.0°F-5.0°C 77% Calm Calm -- 29.41 in995.9 mb 0.00 in0.0 mm 0.00 in0.0 mm 0.00 in0.0 mm
05:35 PM 30.2°F-1.0°C 23.0°F-5.0°C 77% Calm Calm -- 29.41 in995.9 mb 0.00 in0.0 mm 0.00 in0.0 mm 0.00 in0.0 mm
05:40 PM 30.4°F-0.9°C 23.0°F-5.0°C 77% Calm Calm -- 29.41 in995.9 mb 0.00 in0.0 mm 0.00 in0.0 mm 0.00 in0.0 mm
05:45 PM 29.8°F-1.2°C 23.0°F-5.0°C 77% Calm Calm -- 29.41 in995.9 mb 0.00 in0.0 mm 0.00 in0.0 mm 0.00 in0.0 mm
05:50 PM 29.7°F-1.3°C 23.0°F-5.0°C 77% Calm Calm -- 29.18 in988.1 mb 0.00 in0.0 mm 0.00 in0.0 mm 0.00 in0.0 mm
05:55 PM 29.7°F-1.3°C 23.0°F-5.0°C 77% Calm Calm -- 29.18 in988.1 mb 0.00 in0.0 mm 0.00 in0.0 mm 0.00 in0.0 mm
06:00 PM 29.5°F-1.4°C 23.0°F-5.0°C 77% Calm Calm -- 29.18 in988.1 mb 0.00 in0.0 mm 0.00 in0.0 mm 0.00 in0.0 mm
06:05 PM 29.3°F-1.5°C 21.2°F-6.0°C 78% Calm Calm -- 29.41 in995.9 mb 0.00 in0.0 mm 0.00 in0.0 mm 0.00 in0.0 mm
06:10 PM 28.9°F-1.7°C 21.2°F-6.0°C 77% 0.1 mph ESE0.2 kmh ESE 0.9 mph1.4 kmh 29.41 in995.9 mb 0.00 in0.0 mm 0.00 in0.0 mm 0.00 in0.0 mm
06:15 PM 28.6°F-1.9°C 21.2°F-6.0°C 78% 0.1 mph ESE0.2 kmh ESE 0.9 mph1.4 kmh 29.41 in995.9 mb 0.00 in0.0 mm 0.00 in0.0 mm 0.00 in0.0 mm
06:20 PM 28.2°F-2.1°C 21.2°F-6.0°C 78% Calm Calm -- 29.41 in995.9 mb 0.00 in0.0 mm 0.00 in0.0 mm 0.00 in0.0 mm
06:25 PM 28.2°F-2.1°C 21.2°F-6.0°C 78% Calm Calm -- 29.41 in995.9 mb 0.00 in0.0 mm 0.00 in0.0 mm 0.00 in0.0 mm
06:30 PM 28.0°F-2.2°C 21.2°F-6.0°C 78% Calm Calm -- 29.41 in995.9 mb 0.00 in0.0 mm 0.00 in0.0 mm 0.00 in0.0 mm
06:35 PM 27.7°F-2.4°C 21.2°F-6.0°C 78% Calm Calm -- 29.45 in997.3 mb 0.00 in0.0 mm 0.00 in0.0 mm 0.00 in0.0 mm
06:40 PM 27.5°F-2.5°C 19.4°F-7.0°C 78% Calm Calm -- 29.45 in997.3 mb 0.00 in0.0 mm 0.00 in0.0 mm 0.00 in0.0 mm
06:45 PM 27.3°F-2.6°C 19.4°F-7.0°C 78% Calm Calm -- 29.45 in997.3 mb 0.00 in0.0 mm 0.00 in0.0 mm 0.00 in0.0 mm
06:50 PM 27.1°F-2.7°C 19.4°F-7.0°C 78% Calm Calm -- 29.45 in997.3 mb 0.00 in0.0 mm 0.00 in0.0 mm 0.00 in0.0 mm
06:55 PM 27.0°F-2.8°C 19.4°F-7.0°C 78% Calm Calm -- 29.45 in997.3 mb 0.00 in0.0 mm 0.00 in0.0 mm 0.00 in0.0 mm
07:00 PM 27.0°F-2.8°C 19.4°F-7.0°C 78% Calm Calm -- 29.45 in997.3 mb 0.00 in0.0 mm 0.00 in0.0 mm 0.00 in0.0 mm
07:05 PM 26.8°F-2.9°C 19.4°F-7.0°C 78% Calm Calm -- 29.45 in997.3 mb 0.00 in0.0 mm 0.00 in0.0 mm 0.00 in0.0 mm
07:10 PM 26.6°F-3.0°C 19.4°F-7.0°C 78% 0.1 mph N0.2 kmh N 0.9 mph1.4 kmh 29.45 in997.3 mb 0.00 in0.0 mm 0.00 in0.0 mm 0.00 in0.0 mm
07:15 PM 26.6°F-3.0°C 19.4°F-7.0°C 78% 0.1 mph NNE0.2 kmh NNE 0.9 mph1.4 kmh 29.45 in997.3 mb 0.00 in0.0 mm 0.00 in0.0 mm 0.00 in0.0 mm
07:20 PM 26.8°F-2.9°C 19.4°F-7.0°C 79% 0.3 mph NE0.5 kmh NE 1.1 mph1.8 kmh 29.45 in997.3 mb 0.00 in0.0 mm 0.00 in0.0 mm 0.00 in0.0 mm
07:25 PM 26.6°F-3.0°C 19.4°F-7.0°C 79% 0.4 mph NE0.6 kmh NE 1.3 mph2.1 kmh 29.45 in997.3 mb 0.00 in0.0 mm 0.00 in0.0 mm 0.00 in0.0 mm
07:30 PM 26.2°F-3.2°C 19.4°F-7.0°C 79% 0.2 mph NE0.3 kmh NE 1.3 mph2.1 kmh 29.45 in997.3 mb 0.00 in0.0 mm 0.00 in0.0 mm 0.00 in0.0 mm
07:35 PM 26.4°F-3.1°C 19.4°F-7.0°C 79% 0.2 mph NE0.3 kmh NE 0.9 mph1.4 kmh 29.45 in997.3 mb 0.00 in0.0 mm 0.00 in0.0 mm 0.00 in0.0 mm
07:40 PM 26.2°F-3.2°C 19.4°F-7.0°C 79% 0.2 mph NE0.3 kmh NE 0.9 mph1.4 kmh 29.45 in997.3 mb 0.00 in0.0 mm 0.00 in0.0 mm 0.00 in0.0 mm
07:45 PM 26.1°F-3.3°C 19.4°F-7.0°C 79% Calm Calm -- 29.45 in997.3 mb 0.00 in0.0 mm 0.00 in0.0 mm 0.00 in0.0 mm
07:50 PM 25.7°F-3.5°C 19.4°F-7.0°C 79% Calm Calm -- 29.45 in997.3 mb 0.00 in0.0 mm 0.00 in0.0 mm 0.00 in0.0 mm
07:55 PM 25.5°F-3.6°C 19.4°F-7.0°C 79% 0.1 mph NE0.2 kmh NE 0.9 mph1.4 kmh 29.45 in997.3 mb 0.00 in0.0 mm 0.00 in0.0 mm 0.00 in0.0 mm
08:00 PM 26.1°F-3.3°C 19.4°F-7.0°C 79% 0.4 mph NE0.6 kmh NE 1.1 mph1.8 kmh 29.45 in997.3 mb 0.00 in0.0 mm 0.00 in0.0 mm 0.00 in0.0 mm
08:05 PM 25.7°F-3.5°C 19.4°F-7.0°C 79% 0.6 mph NE1.0 kmh NE 1.1 mph1.8 kmh 29.45 in997.3 mb 0.00 in0.0 mm 0.00 in0.0 mm 0.00 in0.0 mm
08:10 PM 25.3°F-3.7°C 19.4°F-7.0°C 79% 0.5 mph NE0.8 kmh NE 0.9 mph1.4 kmh 29.45 in997.3 mb 0.00 in0.0 mm 0.00 in0.0 mm 0.00 in0.0 mm
08:15 PM 25.3°F-3.7°C 19.4°F-7.0°C 79% 0.7 mph ENE1.1 kmh ENE 1.6 mph2.6 kmh 29.45 in997.3 mb 0.00 in0.0 mm 0.00 in0.0 mm 0.00 in0.0 mm
08:20 PM 25.2°F-3.8°C 19.4°F-7.0°C 79% 0.7 mph E1.1 kmh E 1.6 mph2.6 kmh 29.45 in997.3 mb 0.00 in0.0 mm 0.00 in0.0 mm 0.00 in0.0 mm
08:25 PM 25.0°F-3.9°C 19.4°F-7.0°C 79% 0.3 mph E0.5 kmh E 1.1 mph1.8 kmh 29.45 in997.3 mb 0.00 in0.0 mm 0.00 in0.0 mm 0.00 in0.0 mm
08:30 PM 24.6°F-4.1°C 17.6°F-8.0°C 79% Calm Calm 0.9 mph1.4 kmh 29.45 in997.3 mb 0.00 in0.0 mm 0.00 in0.0 mm 0.00 in0.0 mm
08:35 PM 24.6°F-4.1°C 17.6°F-8.0°C 79% 0.1 mph E0.2 kmh E 0.9 mph1.4 kmh 29.45 in997.3 mb 0.00 in0.0 mm 0.00 in0.0 mm 0.00 in0.0 mm
08:40 PM 24.6°F-4.1°C 17.6°F-8.0°C 79% 0.3 mph E0.5 kmh E 1.1 mph1.8 kmh 29.45 in997.3 mb 0.00 in0.0 mm 0.00 in0.0 mm 0.00 in0.0 mm
08:45 PM 24.8°F-4.0°C 17.6°F-8.0°C 79% 0.5 mph ENE0.8 kmh ENE 2.0 mph3.2 kmh 29.45 in997.3 mb 0.00 in0.0 mm 0.00 in0.0 mm 0.00 in0.0 mm
08:50 PM 24.6°F-4.1°C 17.6°F-8.0°C 79% 0.3 mph NE0.5 kmh NE 2.0 mph3.2 kmh 29.45 in997.3 mb 0.00 in0.0 mm 0.00 in0.0 mm 0.00 in0.0 mm
08:55 PM 24.4°F-4.2°C 17.6°F-8.0°C 79% 0.4 mph NE0.6 kmh NE 0.9 mph1.4 kmh 29.45 in997.3 mb 0.00 in0.0 mm 0.00 in0.0 mm 0.00 in0.0 mm
09:00 PM 24.4°F-4.2°C 17.6°F-8.0°C 79% 0.4 mph NE0.6 kmh NE 1.1 mph1.8 kmh 29.45 in997.3 mb 0.00 in0.0 mm 0.00 in0.0 mm 0.00 in0.0 mm
09:05 PM 24.6°F-4.1°C 17.6°F-8.0°C 79% 0.3 mph NE0.5 kmh NE 1.1 mph1.8 kmh 29.33 in993.2 mb 0.00 in0.0 mm 0.00 in0.0 mm 0.00 in0.0 mm
09:10 PM 24.3°F-4.3°C 17.6°F-8.0°C 79% 0.1 mph NE0.2 kmh NE 0.9 mph1.4 kmh 29.33 in993.2 mb 0.00 in0.0 mm 0.00 in0.0 mm 0.00 in0.0 mm
09:15 PM 24.1°F-4.4°C 17.6°F-8.0°C 79% Calm Calm -- 29.33 in993.2 mb 0.00 in0.0 mm 0.00 in0.0 mm 0.00 in0.0 mm
09:20 PM 24.1°F-4.4°C 17.6°F-8.0°C 79% 0.4 mph NE0.6 kmh NE 1.1 mph1.8 kmh 29.41 in995.9 mb 0.00 in0.0 mm 0.00 in0.0 mm 0.00 in0.0 mm
09:25 PM 24.3°F-4.3°C 17.6°F-8.0°C 79% 0.9 mph NE1.4 kmh NE 1.1 mph1.8 kmh 29.41 in995.9 mb 0.00 in0.0 mm 0.00 in0.0 mm 0.00 in0.0 mm
09:30 PM 23.9°F-4.5°C 17.6°F-8.0°C 79% 0.8 mph E1.3 kmh E 0.9 mph1.4 kmh 29.41 in995.9 mb 0.00 in0.0 mm 0.00 in0.0 mm 0.00 in0.0 mm
09:35 PM 23.7°F-4.6°C 17.6°F-8.0°C 79% 0.4 mph E0.6 kmh E 0.9 mph1.4 kmh 29.41 in995.9 mb 0.00 in0.0 mm 0.00 in0.0 mm 0.00 in0.0 mm
09:40 PM 23.7°F-4.6°C 17.6°F-8.0°C 79% Calm Calm -- 29.41 in995.9 mb 0.00 in0.0 mm 0.00 in0.0 mm 0.00 in0.0 mm
09:45 PM 23.5°F-4.7°C 17.6°F-8.0°C 79% Calm Calm -- 29.41 in995.9 mb 0.00 in0.0 mm 0.00 in0.0 mm 0.00 in0.0 mm
09:50 PM 23.2°F-4.9°C 15.8°F-9.0°C 79% Calm Calm -- 29.41 in995.9 mb 0.00 in0.0 mm 0.00 in0.0 mm 0.00 in0.0 mm
09:55 PM 23.0°F-5.0°C 15.8°F-9.0°C 79% Calm Calm -- 29.41 in995.9 mb 0.00 in0.0 mm 0.00 in0.0 mm 0.00 in0.0 mm
10:00 PM 22.8°F-5.1°C 15.8°F-9.0°C 79% Calm Calm -- 29.41 in995.9 mb 0.00 in0.0 mm 0.00 in0.0 mm 0.00 in0.0 mm
10:05 PM 23.0°F-5.0°C 15.8°F-9.0°C 79% Calm Calm -- 29.41 in995.9 mb 0.00 in0.0 mm 0.00 in0.0 mm 0.00 in0.0 mm
10:10 PM 23.2°F-4.9°C 15.8°F-9.0°C 79% Calm Calm -- 29.41 in995.9 mb 0.00 in0.0 mm 0.00 in0.0 mm 0.00 in0.0 mm
10:15 PM 22.8°F-5.1°C 15.8°F-9.0°C 79% Calm Calm -- 29.41 in995.9 mb 0.00 in0.0 mm 0.00 in0.0 mm 0.00 in0.0 mm
10:20 PM 23.0°F-5.0°C 15.8°F-9.0°C 79% Calm Calm -- 29.41 in995.9 mb 0.00 in0.0 mm 0.00 in0.0 mm 0.00 in0.0 mm
10:25 PM 22.6°F-5.2°C 15.8°F-9.0°C 79% Calm Calm -- 29.41 in995.9 mb 0.00 in0.0 mm 0.00 in0.0 mm 0.00 in0.0 mm
10:30 PM 22.6°F-5.2°C 15.8°F-9.0°C 79% 0.1 mph E0.2 kmh E 0.9 mph1.4 kmh 29.41 in995.9 mb 0.00 in0.0 mm 0.00 in0.0 mm 0.00 in0.0 mm
10:35 PM 22.6°F-5.2°C 15.8°F-9.0°C 79% 0.2 mph E0.3 kmh E 0.9 mph1.4 kmh 29.41 in995.9 mb 0.00 in0.0 mm 0.00 in0.0 mm 0.00 in0.0 mm
10:40 PM 22.5°F-5.3°C 15.8°F-9.0°C 79% 0.1 mph E0.2 kmh E 0.9 mph1.4 kmh 29.41 in995.9 mb 0.00 in0.0 mm 0.00 in0.0 mm 0.00 in0.0 mm
10:45 PM 22.6°F-5.2°C 15.8°F-9.0°C 79% 0.3 mph E0.5 kmh E 1.1 mph1.8 kmh 29.41 in995.9 mb 0.00 in0.0 mm 0.00 in0.0 mm 0.00 in0.0 mm
10:50 PM 22.6°F-5.2°C 15.8°F-9.0°C 79% 0.5 mph ENE0.8 kmh ENE 1.1 mph1.8 kmh 29.41 in995.9 mb 0.00 in0.0 mm 0.00 in0.0 mm 0.00 in0.0 mm
10:55 PM 22.6°F-5.2°C 15.8°F-9.0°C 79% 0.5 mph NE0.8 kmh NE 1.3 mph2.1 kmh 29.41 in995.9 mb 0.00 in0.0 mm 0.00 in0.0 mm 0.00 in0.0 mm
11:00 PM 22.5°F-5.3°C 15.8°F-9.0°C 79% 0.5 mph NE0.8 kmh NE 1.3 mph2.1 kmh 29.41 in995.9 mb 0.00 in0.0 mm 0.00 in0.0 mm 0.00 in0.0 mm
11:05 PM 22.6°F-5.2°C 15.8°F-9.0°C 79% 0.4 mph NE0.6 kmh NE 1.1 mph1.8 kmh 29.41 in995.9 mb 0.00 in0.0 mm 0.00 in0.0 mm 0.00 in0.0 mm
11:10 PM 22.6°F-5.2°C 15.8°F-9.0°C 79% 0.6 mph NE1.0 kmh NE 2.2 mph3.5 kmh 29.41 in995.9 mb 0.00 in0.0 mm 0.00 in0.0 mm 0.00 in0.0 mm
11:15 PM 22.8°F-5.1°C 15.8°F-9.0°C 80% 1.3 mph ENE2.1 kmh ENE 2.2 mph3.5 kmh 29.41 in995.9 mb 0.00 in0.0 mm 0.00 in0.0 mm 0.00 in0.0 mm
11:20 PM 22.8°F-5.1°C 15.8°F-9.0°C 80% 1.5 mph ENE2.4 kmh ENE 2.2 mph3.5 kmh 29.41 in995.9 mb 0.00 in0.0 mm 0.00 in0.0 mm 0.00 in0.0 mm
11:25 PM 22.8°F-5.1°C 15.8°F-9.0°C 80% 0.8 mph NE1.3 kmh NE 2.0 mph3.2 kmh 29.41 in995.9 mb 0.00 in0.0 mm 0.00 in0.0 mm 0.00 in0.0 mm
11:30 PM 22.6°F-5.2°C 15.8°F-9.0°C 80% 0.2 mph NE0.3 kmh NE 2.0 mph3.2 kmh 29.41 in995.9 mb 0.00 in0.0 mm 0.00 in0.0 mm 0.00 in0.0 mm
11:35 PM 22.6°F-5.2°C 15.8°F-9.0°C 80% 0.3 mph NE0.5 kmh NE 1.1 mph1.8 kmh 29.41 in995.9 mb 0.00 in0.0 mm 0.00 in0.0 mm 0.00 in0.0 mm
11:40 PM 22.8°F-5.1°C 15.8°F-9.0°C 80% 0.4 mph NE0.6 kmh NE 1.1 mph1.8 kmh 29.41 in995.9 mb 0.00 in0.0 mm 0.00 in0.0 mm 0.00 in0.0 mm
11:45 PM 22.8°F-5.1°C 15.8°F-9.0°C 80% 0.1 mph ENE0.2 kmh ENE 0.9 mph1.4 kmh 29.41 in995.9 mb 0.00 in0.0 mm 0.00 in0.0 mm 0.00 in0.0 mm
11:50 PM 23.0°F-5.0°C 15.8°F-9.0°C 80% 0.2 mph NE0.3 kmh NE 1.3 mph2.1 kmh 29.45 in997.3 mb 0.00 in0.0 mm 0.00 in0.0 mm 0.00 in0.0 mm
11:55 PM 23.5°F-4.7°C 17.6°F-8.0°C 80% 0.6 mph NE1.0 kmh NE 2.5 mph4.0 kmh 29.45 in997.3 mb 0.00 in0.0 mm 0.00 in0.0 mm 0.00 in0.0 mm